Time;durP1;ratioP1;P1;durP2;ratioP2;P2;SDS_P1;SDS_P2;PMS_P1;PMS_P2;Temp;Humidity;BMP_temperature;BMP_pressure;BME280_temperature;BME280_humidity;BME280_pressure;Samples;Min_cycle;Max_cycle;Signal;HPM_P1;HPM_P2
2023/12/30 00:02:16;;;;;;;5.83;5.73;;;8.80;99.90;;;;;;5034656;28;20485;-73
2023/12/30 00:04:43;;;;;;;5.77;5.67;;;8.80;99.90;;;;;;5036489;28;20467;-72
2023/12/30 00:07:10;;;;;;;5.97;5.87;;;8.80;99.90;;;;;;5044957;28;20484;-73
2023/12/30 00:09:37;;;;;;;6.03;5.93;;;8.80;99.90;;;;;;5036926;28;20906;-72
2023/12/30 00:12:05;;;;;;;5.93;5.83;;;8.80;99.90;;;;;;5034911;28;20488;-72
2023/12/30 00:14:31;;;;;;;6.20;6.10;;;8.80;99.90;;;;;;5046349;28;20456;-72
2023/12/30 00:17:00;;;;;;;6.07;5.97;;;8.80;99.90;;;;;;5038224;28;20460;-72
2023/12/30 00:19:27;;;;;;;5.87;5.77;;;8.80;99.90;;;;;;5039985;28;20465;-71
2023/12/30 00:21:54;;;;;;;5.63;5.53;;;8.80;99.90;;;;;;5038113;28;20575;-72
2023/12/30 00:24:20;;;;;;;5.80;5.70;;;8.80;99.90;;;;;;5036955;28;20961;-71
2023/12/30 00:26:47;;;;;;;5.80;5.70;;;8.90;99.90;;;;;;5032543;28;20475;-71
2023/12/30 00:29:14;;;;;;;5.90;5.80;;;8.90;99.90;;;;;;5040089;28;20482;-72
2023/12/30 00:31:42;;;;;;;6.40;6.30;;;9.00;99.90;;;;;;5038046;28;20919;-71
2023/12/30 00:34:10;;;;;;;6.17;6.07;;;9.10;99.90;;;;;;5038286;28;20456;-71
2023/12/30 00:36:43;;;;;;;6.40;6.30;;;9.10;99.90;;;;;;5029028;28;20469;-71
2023/12/30 00:39:11;;;;;;;6.20;6.10;;;9.20;99.90;;;;;;5035537;28;20846;-71
2023/12/30 00:41:38;;;;;;;6.20;6.10;;;9.20;99.90;;;;;;5037550;28;20524;-71
2023/12/30 00:44:05;;;;;;;6.43;6.33;;;9.20;99.90;;;;;;5037972;28;20469;-73
2023/12/30 00:46:32;;;;;;;6.50;6.40;;;9.20;99.90;;;;;;5040385;28;20497;-71
2023/12/30 00:48:59;;;;;;;6.67;6.57;;;9.20;99.90;;;;;;5049150;28;20458;-73
2023/12/30 00:51:27;;;;;;;6.50;6.40;;;9.20;99.90;;;;;;5044808;28;20467;-71
2023/12/30 00:53:55;;;;;;;6.60;6.50;;;9.30;99.90;;;;;;5046236;28;20727;-72
2023/12/30 00:56:22;;;;;;;6.77;6.67;;;9.20;99.90;;;;;;5038389;28;20465;-70
2023/12/30 00:58:49;;;;;;;6.57;6.47;;;9.20;99.90;;;;;;5047779;28;20461;-70
2023/12/30 01:01:16;;;;;;;6.70;6.60;;;9.30;99.90;;;;;;5036008;28;20968;-71
2023/12/30 01:03:43;;;;;;;6.50;6.40;;;9.20;99.90;;;;;;5037203;28;21155;-72
2023/12/30 01:06:11;;;;;;;6.67;6.57;;;9.20;99.90;;;;;;5049467;28;20452;-71
2023/12/30 01:08:40;;;;;;;6.13;6.03;;;9.10;99.90;;;;;;5046112;28;20464;-71
2023/12/30 01:11:07;;;;;;;6.67;6.57;;;9.10;99.90;;;;;;5049849;28;20491;-71
2023/12/30 01:13:34;;;;;;;6.63;6.53;;;9.10;99.90;;;;;;5046402;28;21173;-72
2023/12/30 01:16:06;;;;;;;7.00;6.90;;;9.10;99.90;;;;;;5031008;28;20453;-71
2023/12/30 01:18:33;;;;;;;6.47;6.37;;;9.00;99.90;;;;;;5049281;28;20938;-71
2023/12/30 01:21:00;;;;;;;6.10;6.00;;;9.00;99.90;;;;;;5049124;28;20947;-72
2023/12/30 01:23:28;;;;;;;6.70;6.60;;;9.00;99.90;;;;;;5033041;28;20495;-72
2023/12/30 01:25:56;;;;;;;6.47;6.37;;;8.90;99.90;;;;;;5048309;28;20930;-72
2023/12/30 01:28:24;;;;;;;6.37;6.27;;;8.90;99.90;;;;;;5049144;28;20456;-72
2023/12/30 01:30:52;;;;;;;6.50;6.40;;;8.80;99.90;;;;;;5037134;28;20788;-72
2023/12/30 01:33:19;;;;;;;6.17;6.07;;;8.80;99.90;;;;;;5040829;28;20456;-72
2023/12/30 01:35:46;;;;;;;6.47;6.37;;;8.80;99.90;;;;;;5047836;28;20582;-71
2023/12/30 01:38:13;;;;;;;6.70;6.60;;;8.80;99.90;;;;;;5049695;28;20477;-71
2023/12/30 01:40:39;;;;;;;6.10;6.00;;;8.80;99.90;;;;;;5045180;28;20467;-71
2023/12/30 01:43:24;;;;;;;6.37;6.27;;;8.80;99.90;;;;;;5038978;28;20491;-70
2023/12/30 01:45:53;;;;;;;6.33;6.23;;;8.80;99.90;;;;;;5044332;28;20549;-73
2023/12/30 01:48:20;;;;;;;5.53;5.43;;;8.80;99.90;;;;;;5035731;28;20496;-71
2023/12/30 01:50:49;;;;;;;6.17;6.07;;;8.70;99.90;;;;;;5034662;28;20706;-73
2023/12/30 01:53:31;;;;;;;6.20;6.10;;;8.70;99.90;;;;;;5039684;28;20491;-71
2023/12/30 01:55:59;;;;;;;5.90;5.80;;;8.70;99.90;;;;;;5044489;28;20900;-71
2023/12/30 01:58:27;;;;;;;6.07;5.97;;;8.70;99.90;;;;;;5040996;28;20464;-72
2023/12/30 02:00:56;;;;;;;6.03;5.93;;;8.70;99.90;;;;;;5036897;28;20492;-72
2023/12/30 02:03:24;;;;;;;5.97;5.87;;;8.70;99.90;;;;;;5044770;28;20498;-72
2023/12/30 02:05:51;;;;;;;5.73;5.63;;;8.70;99.90;;;;;;5044860;28;20462;-73
2023/12/30 02:08:19;;;;;;;5.93;5.83;;;8.70;99.90;;;;;;5030501;28;20483;-71
2023/12/30 02:10:47;;;;;;;6.20;6.10;;;8.80;99.90;;;;;;5034484;28;20459;-71
2023/12/30 02:13:13;;;;;;;5.93;5.83;;;8.70;99.90;;;;;;5043238;28;20773;-72
2023/12/30 02:15:43;;;;;;;5.73;5.63;;;8.70;99.90;;;;;;5048683;28;20456;-72
2023/12/30 02:18:11;;;;;;;5.60;5.50;;;8.80;99.90;;;;;;5048801;28;20459;-72
2023/12/30 02:20:37;;;;;;;5.97;5.87;;;8.80;99.90;;;;;;5038735;28;20977;-72
2023/12/30 02:23:06;;;;;;;5.67;5.57;;;8.80;99.90;;;;;;5039074;28;20846;-72
2023/12/30 02:25:32;;;;;;;6.00;5.90;;;8.80;99.90;;;;;;5043163;28;20460;-73
2023/12/30 02:27:59;;;;;;;4.60;4.60;;;8.70;99.90;;;;;;5030747;28;20862;-73
2023/12/30 02:30:26;;;;;;;5.23;5.13;;;8.70;99.90;;;;;;5040057;28;20472;-72
2023/12/30 02:32:57;;;;;;;5.17;5.10;;;8.70;99.90;;;;;;5042134;28;20460;-73
2023/12/30 02:35:24;;;;;;;5.20;5.10;;;8.70;99.90;;;;;;5041891;28;20875;-72
2023/12/30 02:37:51;;;;;;;5.47;5.37;;;8.70;99.90;;;;;;5047019;28;20485;-72
2023/12/30 02:40:20;;;;;;;5.27;5.17;;;8.70;99.90;;;;;;5038567;28;20473;-71
2023/12/30 02:42:47;;;;;;;4.90;4.90;;;8.80;99.90;;;;;;5042588;28;20492;-71
2023/12/30 02:45:14;;;;;;;4.83;4.83;;;8.90;99.90;;;;;;5036854;28;20456;-72
2023/12/30 02:47:40;;;;;;;4.90;4.90;;;8.90;99.90;;;;;;5048184;28;20453;-73
2023/12/30 02:50:08;;;;;;;5.30;5.20;;;8.80;99.90;;;;;;5043298;28;20485;-72
2023/12/30 02:52:35;;;;;;;5.10;5.07;;;8.80;99.90;;;;;;5033304;28;20468;-72
2023/12/30 02:55:03;;;;;;;5.60;5.50;;;8.70;99.90;;;;;;5044722;28;20464;-73
2023/12/30 02:57:31;;;;;;;4.83;4.83;;;8.70;99.90;;;;;;5042758;28;20539;-72
2023/12/30 02:59:58;;;;;;;4.90;4.90;;;8.60;99.90;;;;;;5037729;28;20467;-73
2023/12/30 03:02:25;;;;;;;5.00;5.00;;;8.50;99.90;;;;;;5038098;28;20978;-72
2023/12/30 03:04:52;;;;;;;4.70;4.70;;;8.50;99.90;;;;;;5046109;28;21082;-72
2023/12/30 03:07:19;;;;;;;4.80;4.80;;;8.40;99.90;;;;;;5036812;28;20457;-72
2023/12/30 03:09:46;;;;;;;4.80;4.80;;;8.50;99.90;;;;;;5042813;28;20463;-73
2023/12/30 03:12:14;;;;;;;4.30;4.30;;;8.40;99.90;;;;;;5037771;28;20475;-71
2023/12/30 03:14:43;;;;;;;4.80;4.80;;;8.40;99.90;;;;;;5039435;28;20457;-72
2023/12/30 03:17:10;;;;;;;4.30;4.30;;;8.40;99.90;;;;;;5047302;28;20863;-72
2023/12/30 03:19:37;;;;;;;4.43;4.43;;;8.40;99.90;;;;;;5035671;28;20468;-72
2023/12/30 03:22:05;;;;;;;4.17;4.17;;;8.30;99.90;;;;;;5042944;28;21097;-73
2023/12/30 03:24:32;;;;;;;4.10;4.10;;;8.30;99.90;;;;;;5033820;28;20768;-73
2023/12/30 03:26:59;;;;;;;4.10;4.10;;;8.30;99.90;;;;;;5038175;28;20990;-72
2023/12/30 03:29:27;;;;;;;4.20;4.20;;;8.30;99.90;;;;;;5034544;28;20476;-73
2023/12/30 03:31:56;;;;;;;4.60;4.60;;;8.30;99.90;;;;;;5038309;28;20477;-72
2023/12/30 03:34:23;;;;;;;4.67;4.67;;;8.30;99.90;;;;;;5043497;28;20468;-72
2023/12/30 03:36:51;;;;;;;4.40;4.40;;;8.30;99.90;;;;;;5045138;28;20477;-72
2023/12/30 03:39:18;;;;;;;4.53;4.53;;;8.20;99.90;;;;;;5038292;28;20472;-72
2023/12/30 03:41:45;;;;;;;4.53;4.53;;;8.20;99.90;;;;;;5045431;28;20465;-71
2023/12/30 03:44:11;;;;;;;4.43;4.43;;;8.20;99.90;;;;;;5035201;28;20460;-72
2023/12/30 03:46:40;;;;;;;4.23;4.23;;;8.20;99.90;;;;;;5044130;28;20556;-71
2023/12/30 03:49:09;;;;;;;4.43;4.43;;;8.30;99.90;;;;;;5037420;28;20481;-72
2023/12/30 03:51:35;;;;;;;4.60;4.60;;;8.30;99.90;;;;;;5038447;28;20457;-72
2023/12/30 03:54:04;;;;;;;4.20;4.20;;;8.30;99.90;;;;;;5039535;28;20459;-72
2023/12/30 03:56:32;;;;;;;4.17;4.17;;;8.30;99.90;;;;;;5044164;28;20649;-71
2023/12/30 03:59:00;;;;;;;4.03;4.03;;;8.20;99.90;;;;;;5033681;28;20813;-72
2023/12/30 04:01:27;;;;;;;4.20;4.20;;;8.30;99.90;;;;;;5040171;28;20463;-72
2023/12/30 04:03:54;;;;;;;4.00;4.00;;;8.20;99.90;;;;;;5033314;28;20498;-71
2023/12/30 04:06:22;;;;;;;3.87;3.87;;;8.20;99.90;;;;;;5045809;28;20452;-73
2023/12/30 04:08:49;;;;;;;4.10;4.10;;;8.20;99.90;;;;;;5037453;28;20474;-71
2023/12/30 04:11:16;;;;;;;3.80;3.80;;;8.10;99.90;;;;;;5037857;28;20452;-72
2023/12/30 04:13:45;;;;;;;4.00;4.00;;;8.00;99.90;;;;;;5043749;28;20460;-73
2023/12/30 04:16:12;;;;;;;3.60;3.60;;;8.10;99.90;;;;;;5029869;28;20460;-72
2023/12/30 04:18:38;;;;;;;3.40;3.40;;;8.10;99.90;;;;;;5035884;28;20468;-72
2023/12/30 04:21:06;;;;;;;4.40;4.40;;;8.10;99.90;;;;;;5050786;28;21010;-72
2023/12/30 04:23:35;;;;;;;4.57;4.57;;;8.10;99.90;;;;;;5036090;28;20507;-71
2023/12/30 04:26:02;;;;;;;4.40;4.40;;;8.20;99.90;;;;;;5036971;28;20810;-71
2023/12/30 04:28:29;;;;;;;3.70;3.70;;;8.20;99.90;;;;;;5040820;28;20818;-72
2023/12/30 04:30:56;;;;;;;3.80;3.80;;;8.20;99.90;;;;;;5040055;28;21469;-72
2023/12/30 04:33:22;;;;;;;4.10;4.10;;;8.10;99.90;;;;;;5039055;28;20468;-72
2023/12/30 04:35:49;;;;;;;4.13;4.13;;;8.10;99.90;;;;;;5049519;28;20483;-72
2023/12/30 04:38:18;;;;;;;3.90;3.90;;;8.00;99.90;;;;;;5050814;28;20473;-72
2023/12/30 04:40:47;;;;;;;3.73;3.73;;;7.90;99.90;;;;;;5043519;28;20452;-70
2023/12/30 04:43:14;;;;;;;4.10;4.10;;;7.90;99.90;;;;;;5040980;28;20484;-71
2023/12/30 04:45:41;;;;;;;3.80;3.80;;;7.90;99.90;;;;;;5047582;28;20498;-72
2023/12/30 04:48:08;;;;;;;3.93;3.93;;;7.90;99.90;;;;;;5050599;28;20453;-72
2023/12/30 04:50:35;;;;;;;3.40;3.40;;;7.90;99.90;;;;;;5045464;28;20943;-71
2023/12/30 04:53:02;;;;;;;3.70;3.70;;;7.90;99.90;;;;;;5045143;28;20512;-72
2023/12/30 04:55:29;;;;;;;3.43;3.43;;;7.90;99.90;;;;;;5036658;28;20458;-72
2023/12/30 04:57:57;;;;;;;3.33;3.33;;;7.90;99.90;;;;;;5047737;28;20456;-72
2023/12/30 05:00:24;;;;;;;3.87;3.87;;;7.80;99.90;;;;;;5050550;28;20464;-71
2023/12/30 05:02:51;;;;;;;3.50;3.50;;;7.90;99.90;;;;;;5050347;28;20487;-71
2023/12/30 05:05:18;;;;;;;3.17;3.17;;;7.90;99.90;;;;;;5040625;28;20460;-72
2023/12/30 05:07:45;;;;;;;3.63;3.63;;;7.90;99.90;;;;;;5050162;28;20452;-71
2023/12/30 05:10:12;;;;;;;3.27;3.27;;;7.90;99.90;;;;;;5043959;28;20811;-71
2023/12/30 05:12:39;;;;;;;3.30;3.30;;;7.80;99.90;;;;;;5036312;28;20453;-71
2023/12/30 05:15:08;;;;;;;3.03;3.03;;;7.80;99.90;;;;;;5036005;28;20459;-71
2023/12/30 05:17:36;;;;;;;3.40;3.40;;;7.80;99.90;;;;;;5039996;28;20444;-72
2023/12/30 05:20:06;;;;;;;3.40;3.40;;;7.80;99.90;;;;;;5040520;28;20473;-71
2023/12/30 05:22:33;;;;;;;3.60;3.60;;;7.80;99.90;;;;;;5035484;28;21216;-71
2023/12/30 05:24:59;;;;;;;3.30;3.30;;;7.80;99.90;;;;;;5045804;28;20943;-71
2023/12/30 05:27:27;;;;;;;3.40;3.40;;;7.80;99.90;;;;;;5041608;28;20448;-72
2023/12/30 05:29:53;;;;;;;3.40;3.40;;;7.80;99.90;;;;;;5034218;28;20505;-70
2023/12/30 05:32:21;;;;;;;3.20;3.20;;;7.80;99.90;;;;;;5046150;28;20773;-71
2023/12/30 05:34:48;;;;;;;3.40;3.40;;;7.80;99.90;;;;;;5040674;28;20460;-72
2023/12/30 05:37:15;;;;;;;3.43;3.43;;;7.80;99.90;;;;;;5041857;28;20497;-72
2023/12/30 05:39:42;;;;;;;3.20;3.20;;;7.80;99.90;;;;;;5039666;28;20814;-71
2023/12/30 05:42:09;;;;;;;3.00;3.00;;;7.80;99.90;;;;;;5036379;28;20465;-72
2023/12/30 05:44:38;;;;;;;3.40;3.40;;;7.80;99.90;;;;;;5045308;28;20467;-71
2023/12/30 05:47:05;;;;;;;3.20;3.20;;;7.70;99.90;;;;;;5048026;28;20465;-71
2023/12/30 05:49:35;;;;;;;3.10;3.10;;;7.80;99.90;;;;;;5049343;28;20456;-70
2023/12/30 05:52:02;;;;;;;3.10;3.10;;;7.80;99.90;;;;;;5030039;28;20858;-71
2023/12/30 05:54:29;;;;;;;3.30;3.30;;;7.80;99.90;;;;;;5040556;28;20811;-71
2023/12/30 05:56:56;;;;;;;3.10;3.10;;;7.80;99.90;;;;;;5049142;28;20463;-72
2023/12/30 05:59:23;;;;;;;3.70;3.70;;;7.80;99.90;;;;;;5049506;28;20464;-71
2023/12/30 06:01:50;;;;;;;3.50;3.50;;;7.80;99.90;;;;;;5034569;28;20559;-71
2023/12/30 06:04:16;;;;;;;3.70;3.70;;;7.90;99.90;;;;;;5039446;28;20488;-72
2023/12/30 06:06:45;;;;;;;3.00;3.00;;;7.90;99.90;;;;;;5039125;28;20475;-71
2023/12/30 06:09:13;;;;;;;3.10;3.10;;;7.80;99.90;;;;;;5043461;28;20525;-70
2023/12/30 06:11:40;;;;;;;2.97;2.97;;;7.80;99.90;;;;;;5039672;28;20491;-71
2023/12/30 06:14:07;;;;;;;3.30;3.30;;;7.70;99.90;;;;;;5035545;28;20457;-71
2023/12/30 06:16:34;;;;;;;2.93;2.93;;;7.70;99.90;;;;;;5046736;28;20449;-72
2023/12/30 06:19:01;;;;;;;2.60;2.60;;;7.60;99.90;;;;;;5029372;28;20464;-71
2023/12/30 06:21:28;;;;;;;2.57;2.57;;;7.70;99.90;;;;;;5044651;28;20456;-70
2023/12/30 06:23:56;;;;;;;2.70;2.70;;;7.70;99.90;;;;;;5042015;28;20488;-72
2023/12/30 06:26:23;;;;;;;3.00;3.00;;;7.70;99.90;;;;;;5043414;28;20859;-70
2023/12/30 06:28:50;;;;;;;2.83;2.83;;;7.70;99.90;;;;;;5044818;28;20809;-71
2023/12/30 06:31:17;;;;;;;2.80;2.80;;;7.70;99.90;;;;;;5035496;28;20496;-72
2023/12/30 06:33:44;;;;;;;2.83;2.83;;;7.70;99.90;;;;;;5040906;28;20566;-72
2023/12/30 06:36:20;;;;;;;3.00;3.00;;;7.70;99.90;;;;;;5035304;28;20473;-71
2023/12/30 06:38:46;;;;;;;3.33;3.33;;;7.70;99.90;;;;;;5042946;28;20464;-71
2023/12/30 06:41:18;;;;;;;3.40;3.40;;;7.70;99.90;;;;;;5042475;28;20460;-71
2023/12/30 06:43:45;;;;;;;3.30;3.30;;;7.60;99.90;;;;;;5043069;28;20500;-70
2023/12/30 06:46:11;;;;;;;3.50;3.50;;;7.60;99.90;;;;;;5036648;28;20463;-72
2023/12/30 06:48:38;;;;;;;3.70;3.70;;;7.60;99.90;;;;;;5048431;28;20801;-72
2023/12/30 06:51:11;;;;;;;3.67;3.67;;;7.60;99.90;;;;;;5034513;28;20524;-71
2023/12/30 06:53:38;;;;;;;3.70;3.70;;;7.50;99.90;;;;;;5038080;28;20461;-72
2023/12/30 06:56:08;;;;;;;3.43;3.43;;;7.50;99.90;;;;;;5040484;28;20823;-72
2023/12/30 06:58:37;;;;;;;3.00;3.00;;;7.50;99.90;;;;;;5039021;28;20876;-72
2023/12/30 07:01:04;;;;;;;2.80;2.80;;;7.50;99.90;;;;;;5033962;28;20464;-72
2023/12/30 07:03:32;;;;;;;2.77;2.77;;;7.50;99.90;;;;;;5048099;28;20525;-72
2023/12/30 07:05:58;;;;;;;2.43;2.43;;;7.50;99.90;;;;;;5040205;28;20468;-72
2023/12/30 07:08:25;;;;;;;3.00;3.00;;;7.50;99.90;;;;;;5032397;28;20771;-71
2023/12/30 07:10:52;;;;;;;2.60;2.60;;;7.50;99.90;;;;;;5035202;28;20491;-72
2023/12/30 07:13:19;;;;;;;2.90;2.90;;;7.50;99.90;;;;;;5038739;28;20773;-71
2023/12/30 07:15:47;;;;;;;2.63;2.63;;;7.60;99.90;;;;;;5045470;28;20456;-72
2023/12/30 07:18:14;;;;;;;2.80;2.80;;;7.60;99.90;;;;;;5038074;28;20462;-72
2023/12/30 07:20:42;;;;;;;2.70;2.70;;;7.70;99.90;;;;;;5040056;28;20985;-72
2023/12/30 07:23:08;;;;;;;2.50;2.50;;;7.70;99.90;;;;;;5038048;28;20480;-70
2023/12/30 07:25:35;;;;;;;2.80;2.80;;;7.80;99.90;;;;;;5031321;28;20461;-71
2023/12/30 07:28:02;;;;;;;2.93;2.93;;;7.80;99.90;;;;;;5044215;28;20869;-70
2023/12/30 07:30:29;;;;;;;2.73;2.73;;;7.90;99.90;;;;;;5043781;28;20515;-72
2023/12/30 07:32:58;;;;;;;3.30;3.30;;;7.90;99.90;;;;;;5044600;28;20807;-71
2023/12/30 07:35:27;;;;;;;3.40;3.40;;;7.90;99.90;;;;;;5030545;28;20980;-72
2023/12/30 07:37:53;;;;;;;3.00;3.00;;;8.00;99.90;;;;;;5036375;28;20583;-71
2023/12/30 07:40:20;;;;;;;3.50;3.50;;;8.00;99.90;;;;;;5039912;28;20457;-72
2023/12/30 07:42:48;;;;;;;3.80;3.80;;;8.10;99.90;;;;;;5048151;28;20457;-71
2023/12/30 07:45:16;;;;;;;3.53;3.53;;;8.00;99.90;;;;;;5035719;28;20475;-72
2023/12/30 07:47:43;;;;;;;4.10;4.10;;;8.10;99.90;;;;;;5041737;28;20460;-72
2023/12/30 07:50:11;;;;;;;4.00;4.00;;;8.10;99.90;;;;;;5038234;28;20471;-71
2023/12/30 07:52:39;;;;;;;4.30;4.30;;;8.10;99.90;;;;;;5047021;28;20491;-71
2023/12/30 07:55:07;;;;;;;3.90;3.90;;;8.10;99.90;;;;;;5040540;28;20473;-71
2023/12/30 07:57:34;;;;;;;4.00;4.00;;;8.20;99.90;;;;;;5037657;28;20525;-71
2023/12/30 08:00:01;;;;;;;3.90;3.90;;;8.10;99.90;;;;;;5039355;28;20928;-72
2023/12/30 08:02:28;;;;;;;3.57;3.57;;;8.10;99.90;;;;;;5045823;28;20784;-71
2023/12/30 08:04:57;;;;;;;3.50;3.50;;;8.10;99.90;;;;;;5033478;28;20492;-71
2023/12/30 08:07:26;;;;;;;4.00;4.00;;;8.00;99.90;;;;;;5040997;28;20553;-71
2023/12/30 08:09:54;;;;;;;3.50;3.50;;;8.10;99.90;;;;;;5037369;28;20456;-72
2023/12/30 08:12:21;;;;;;;3.37;3.37;;;8.10;99.90;;;;;;5030920;28;22149;-72
2023/12/30 08:14:47;;;;;;;3.67;3.67;;;8.00;99.90;;;;;;5031575;28;20959;-72
2023/12/30 08:17:15;;;;;;;3.60;3.60;;;8.10;99.90;;;;;;5040989;28;20854;-71
2023/12/30 08:19:42;;;;;;;4.10;4.10;;;8.20;99.90;;;;;;5045657;28;20471;-71
2023/12/30 08:22:08;;;;;;;3.70;3.70;;;8.20;99.90;;;;;;5040505;28;20506;-71
2023/12/30 08:24:37;;;;;;;4.10;4.10;;;8.30;99.90;;;;;;5047378;28;20496;-72
2023/12/30 08:27:04;;;;;;;4.03;4.03;;;8.30;99.90;;;;;;5031770;28;20466;-71
2023/12/30 08:29:31;;;;;;;4.20;4.20;;;8.40;99.90;;;;;;5039475;28;20603;-72
2023/12/30 08:31:58;;;;;;;4.50;4.50;;;8.50;99.90;;;;;;5036389;28;20487;-70
2023/12/30 08:34:27;;;;;;;4.70;4.70;;;8.50;99.90;;;;;;5036092;28;20449;-71
2023/12/30 08:36:55;;;;;;;4.90;4.90;;;8.60;99.90;;;;;;5034911;28;20481;-72
2023/12/30 08:39:21;;;;;;;5.10;5.00;;;8.60;99.90;;;;;;5037695;28;20483;-72
2023/12/30 08:41:50;;;;;;;5.20;5.10;;;8.60;99.90;;;;;;5036359;28;20456;-71
2023/12/30 08:44:17;;;;;;;5.90;5.80;;;8.70;99.90;;;;;;5036655;28;20484;-72
2023/12/30 08:46:44;;;;;;;5.37;5.27;;;8.70;99.90;;;;;;5045590;28;20460;-71
2023/12/30 08:49:11;;;;;;;5.53;5.43;;;8.80;99.90;;;;;;5034046;28;20879;-72
2023/12/30 08:51:38;;;;;;;5.53;5.43;;;8.70;99.90;;;;;;5039598;28;20468;-72
2023/12/30 08:54:05;;;;;;;5.47;5.37;;;8.80;99.90;;;;;;5028392;28;20557;-72
2023/12/30 08:56:33;;;;;;;5.23;5.13;;;8.80;99.90;;;;;;5040403;28;20686;-72
2023/12/30 08:59:01;;;;;;;5.80;5.70;;;8.80;99.90;;;;;;5031014;28;20477;-72
2023/12/30 09:01:28;;;;;;;5.97;5.87;;;8.80;99.90;;;;;;5033399;28;20457;-72
2023/12/30 09:03:56;;;;;;;5.80;5.70;;;8.90;99.90;;;;;;5046136;28;21658;-71
2023/12/30 09:06:23;;;;;;;6.17;6.07;;;8.90;99.90;;;;;;5041840;28;20456;-71
2023/12/30 09:08:50;;;;;;;6.30;6.20;;;8.90;99.90;;;;;;5044796;28;20498;-71
2023/12/30 09:11:20;;;;;;;6.23;6.13;;;8.80;99.90;;;;;;5031950;28;20475;-73
2023/12/30 09:13:48;;;;;;;6.03;5.93;;;8.90;99.90;;;;;;5042955;28;20459;-72
2023/12/30 09:16:17;;;;;;;6.37;6.27;;;8.90;99.90;;;;;;5033466;28;20492;-73
2023/12/30 09:18:44;;;;;;;7.20;7.10;;;8.90;99.90;;;;;;5045791;28;20467;-72
2023/12/30 09:21:11;;;;;;;6.43;6.33;;;9.00;99.90;;;;;;5052916;28;20466;-73
2023/12/30 09:23:38;;;;;;;6.83;6.73;;;9.00;99.90;;;;;;5038491;28;20473;-71
2023/12/30 09:26:05;;;;;;;6.77;6.67;;;9.00;99.90;;;;;;5042453;28;20459;-72
2023/12/30 09:28:33;;;;;;;6.90;6.80;;;9.00;99.90;;;;;;5033182;28;20472;-72
2023/12/30 09:31:00;;;;;;;7.50;7.40;;;9.10;99.90;;;;;;5037684;28;20453;-72
2023/12/30 09:33:29;;;;;;;6.80;6.70;;;9.20;99.90;;;;;;5035766;28;21235;-72
2023/12/30 09:35:55;;;;;;;7.90;7.80;;;9.20;99.90;;;;;;5036751;28;20550;-72
2023/12/30 09:38:23;;;;;;;7.67;7.57;;;9.30;99.90;;;;;;5039857;28;20808;-72
2023/12/30 09:40:51;;;;;;;7.93;7.83;;;9.30;99.90;;;;;;5040919;28;21067;-71
2023/12/30 09:43:23;;;;;;;7.43;7.33;;;9.40;99.90;;;;;;5033905;28;20871;-72
2023/12/30 09:45:51;;;;;;;7.60;7.50;;;9.50;99.90;;;;;;5040342;28;20476;-71
2023/12/30 09:48:21;;;;;;;8.50;8.40;;;9.40;99.90;;;;;;5037677;28;20544;-72
2023/12/30 09:50:50;;;;;;;8.00;7.90;;;9.40;99.90;;;;;;5028150;28;20569;-72
2023/12/30 09:53:19;;;;;;;8.07;7.97;;;9.40;99.90;;;;;;5042947;28;20470;-72
2023/12/30 09:55:47;;;;;;;7.90;7.80;;;9.50;99.90;;;;;;5033718;28;20460;-71
2023/12/30 09:58:14;;;;;;;7.33;7.23;;;9.60;99.90;;;;;;5037947;28;20558;-71
2023/12/30 10:00:43;;;;;;;8.00;7.90;;;9.70;99.90;;;;;;5039139;28;20471;-71
2023/12/30 10:03:10;;;;;;;7.73;7.63;;;9.60;99.90;;;;;;5038359;28;20559;-71
2023/12/30 10:05:37;;;;;;;8.03;7.93;;;9.70;99.90;;;;;;5034178;28;20488;-73
2023/12/30 10:08:06;;;;;;;7.90;7.80;;;9.70;99.90;;;;;;5044611;28;20870;-73
2023/12/30 10:10:43;;;;;;;8.03;7.93;;;9.80;99.90;;;;;;5037844;28;20966;-71
2023/12/30 10:13:09;;;;;;;8.23;8.13;;;9.90;99.90;;;;;;5033197;28;20468;-73
2023/12/30 10:15:36;;;;;;;8.53;8.43;;;9.90;99.90;;;;;;5034734;28;20480;-71
2023/12/30 10:18:06;;;;;;;8.40;8.30;;;9.90;99.90;;;;;;5043584;28;20468;-72
2023/12/30 10:20:33;;;;;;;8.07;7.97;;;9.80;99.90;;;;;;5033825;28;20541;-71
2023/12/30 10:23:00;;;;;;;8.20;8.10;;;9.70;99.90;;;;;;5045469;28;20464;-72
2023/12/30 10:25:28;;;;;;;8.30;8.20;;;9.80;99.90;;;;;;5042339;28;20493;-72
2023/12/30 10:27:55;;;;;;;8.70;8.60;;;9.90;99.90;;;;;;5042459;28;20455;-72
2023/12/30 10:30:23;;;;;;;8.93;8.77;;;10.00;99.90;;;;;;5046399;28;20866;-72
2023/12/30 10:32:50;;;;;;;8.60;8.50;;;10.10;99.90;;;;;;5038398;28;20490;-70
2023/12/30 10:35:17;;;;;;;8.60;8.50;;;10.00;99.90;;;;;;5033136;28;20939;-71
2023/12/30 10:37:43;;;;;;;8.47;8.37;;;10.10;99.90;;;;;;5043644;28;20541;-72
2023/12/30 10:40:11;;;;;;;8.57;8.47;;;10.10;99.90;;;;;;5033548;28;20460;-71
2023/12/30 10:42:42;;;;;;;9.03;8.83;;;10.20;99.90;;;;;;5046159;28;21177;-72
2023/12/30 10:45:09;;;;;;;8.67;8.57;;;10.20;99.90;;;;;;5039906;28;21157;-72
2023/12/30 10:47:40;;;;;;;8.60;8.50;;;10.20;99.90;;;;;;5034267;28;20951;-71
2023/12/30 10:50:09;;;;;;;8.40;8.30;;;10.30;99.90;;;;;;5035167;28;20461;-70
2023/12/30 10:52:41;;;;;;;8.97;8.80;;;10.30;99.90;;;;;;5042785;28;20468;-70
2023/12/30 10:55:10;;;;;;;9.20;9.00;;;10.30;99.90;;;;;;5035811;28;20460;-72
2023/12/30 10:57:40;;;;;;;9.20;9.00;;;10.40;99.90;;;;;;5043904;28;20486;-71
2023/12/30 11:00:14;;;;;;;8.70;8.60;;;10.30;99.90;;;;;;5033100;28;21036;-71
2023/12/30 11:02:43;;;;;;;8.60;8.50;;;10.40;99.90;;;;;;5033917;28;20463;-70
2023/12/30 11:05:15;;;;;;;8.10;8.00;;;10.40;99.90;;;;;;5025973;28;20484;-71
2023/12/30 11:07:42;;;;;;;8.77;8.67;;;10.50;99.90;;;;;;5024766;28;20559;-70
2023/12/30 11:10:20;;;;;;;9.33;9.13;;;10.50;99.90;;;;;;5031131;28;20449;-71
2023/12/30 11:12:47;;;;;;;9.10;8.90;;;10.50;99.90;;;;;;5039371;28;20463;-71
2023/12/30 11:15:26;;;;;;;9.27;9.07;;;10.50;99.90;;;;;;5036987;28;20473;-72
2023/12/30 11:17:53;;;;;;;8.80;8.70;;;10.50;99.90;;;;;;5040264;28;20464;-71
2023/12/30 11:20:26;;;;;;;9.40;9.20;;;10.60;99.90;;;;;;5035716;28;20543;-70
2023/12/30 11:22:55;;;;;;;9.77;9.57;;;10.60;99.90;;;;;;5042588;28;20456;-71
2023/12/30 11:25:22;;;;;;;9.67;9.47;;;10.70;99.90;;;;;;5037010;28;20491;-71
2023/12/30 11:27:49;;;;;;;9.90;9.70;;;10.70;99.90;;;;;;5043508;28;20468;-71
2023/12/30 11:30:17;;;;;;;10.17;9.97;;;10.70;99.90;;;;;;5046759;28;20480;-71
2023/12/30 11:32:46;;;;;;;9.93;9.73;;;10.90;99.90;;;;;;5025973;28;20581;-73
2023/12/30 11:35:14;;;;;;;9.83;9.63;;;11.00;99.90;;;;;;5037301;28;20888;-72
2023/12/30 11:37:45;;;;;;;10.23;10.03;;;10.90;99.90;;;;;;5036927;28;20489;-71
2023/12/30 11:40:18;;;;;;;10.47;10.27;;;10.80;99.90;;;;;;5045106;28;20456;-71
2023/12/30 11:42:45;;;;;;;11.13;10.83;;;10.90;99.90;;;;;;5042173;28;20962;-71
2023/12/30 11:45:13;;;;;;;9.97;9.77;;;11.00;99.90;;;;;;5028728;28;20493;-71
2023/12/30 11:47:40;;;;;;;10.30;10.10;;;11.10;99.90;;;;;;5043344;28;20560;-72
2023/12/30 11:50:09;;;;;;;10.60;10.40;;;10.90;99.90;;;;;;5038547;28;21093;-72
2023/12/30 11:52:37;;;;;;;10.73;10.53;;;11.00;99.90;;;;;;5044857;28;20507;-72
2023/12/30 11:55:05;;;;;;;10.50;10.30;;;11.00;99.90;;;;;;5037562;28;20966;-71
2023/12/30 11:57:33;;;;;;;10.53;10.33;;;11.00;99.90;;;;;;5037472;28;21162;-72
2023/12/30 12:00:00;;;;;;;10.97;10.67;;;10.90;99.90;;;;;;5039105;28;21176;-71
2023/12/30 12:02:28;;;;;;;10.20;10.00;;;10.80;99.90;;;;;;5042947;28;20943;-73
2023/12/30 12:04:55;;;;;;;10.47;10.27;;;10.70;99.90;;;;;;5036906;28;20491;-71
2023/12/30 12:07:23;;;;;;;10.40;10.20;;;10.80;99.90;;;;;;5045645;28;20802;-72
2023/12/30 12:09:49;;;;;;;10.30;10.10;;;11.10;99.90;;;;;;5041533;28;20456;-72
2023/12/30 12:12:21;;;;;;;10.60;10.40;;;11.20;99.90;;;;;;5046207;28;20458;-73
2023/12/30 12:14:49;;;;;;;10.70;10.50;;;11.30;99.90;;;;;;5033204;28;20476;-72
2023/12/30 12:17:17;;;;;;;10.47;10.27;;;11.20;99.90;;;;;;5043082;28;20555;-73
2023/12/30 12:19:45;;;;;;;11.07;10.77;;;11.00;99.90;;;;;;5037435;28;20464;-72
2023/12/30 12:22:13;;;;;;;11.47;11.17;;;10.90;99.90;;;;;;5041814;28;20464;-72
2023/12/30 12:24:42;;;;;;;11.23;10.93;;;10.80;99.90;;;;;;5044804;28;20956;-72
2023/12/30 12:27:09;;;;;;;11.33;11.03;;;10.90;99.90;;;;;;5037501;28;21301;-73
2023/12/30 12:29:46;;;;;;;10.67;10.47;;;11.20;99.90;;;;;;5041095;28;20803;-72
2023/12/30 12:32:15;;;;;;;11.67;11.37;;;11.60;99.90;;;;;;5040741;28;20557;-71
2023/12/30 12:34:42;;;;;;;11.40;11.10;;;11.70;99.90;;;;;;5035420;28;21637;-72
2023/12/30 12:37:10;;;;;;;11.10;10.80;;;11.60;99.90;;;;;;5044265;28;20483;-72
2023/12/30 12:39:37;;;;;;;11.57;11.27;;;11.80;99.90;;;;;;5044761;28;20444;-72
2023/12/30 12:42:05;;;;;;;11.50;11.20;;;11.80;99.90;;;;;;5038889;28;20510;-72
2023/12/30 12:44:32;;;;;;;12.03;11.73;;;11.70;99.90;;;;;;5048955;28;20467;-73
2023/12/30 12:46:59;;;;;;;11.90;11.60;;;11.60;99.90;;;;;;5038963;28;20471;-72
2023/12/30 12:49:26;;;;;;;11.27;10.97;;;11.80;99.90;;;;;;5043551;28;20479;-71
2023/12/30 12:51:53;;;;;;;11.83;11.53;;;11.80;99.90;;;;;;5043069;28;20820;-71
2023/12/30 12:54:20;;;;;;;11.40;11.10;;;11.90;99.90;;;;;;5048549;28;20479;-72
2023/12/30 12:56:46;;;;;;;11.57;11.27;;;11.90;99.90;;;;;;5046197;28;20459;-72